sensor_id;sensor_type;location;lat;lon;timestamp;temperature;humidity
55721;DHT22;41626;53.098;6.168;2023-01-25T00:01:52;1.10;99.90
55721;DHT22;41626;53.098;6.168;2023-01-25T00:04:19;1.00;99.90
55721;DHT22;41626;53.098;6.168;2023-01-25T00:06:46;0.90;99.90
55721;DHT22;41626;53.098;6.168;2023-01-25T00:09:12;1.20;99.90
55721;DHT22;41626;53.098;6.168;2023-01-25T00:11:38;1.00;99.90
55721;DHT22;41626;53.098;6.168;2023-01-25T00:14:04;0.80;99.90
55721;DHT22;41626;53.098;6.168;2023-01-25T00:16:30;0.90;99.90
55721;DHT22;41626;53.098;6.168;2023-01-25T00:18:56;0.90;99.90
55721;DHT22;41626;53.098;6.168;2023-01-25T00:21:24;0.80;99.90
55721;DHT22;41626;53.098;6.168;2023-01-25T00:23:50;0.70;99.90
55721;DHT22;41626;53.098;6.168;2023-01-25T00:26:16;0.70;99.90
55721;DHT22;41626;53.098;6.168;2023-01-25T00:28:42;0.90;99.90
55721;DHT22;41626;53.098;6.168;2023-01-25T00:31:16;1.20;99.90
55721;DHT22;41626;53.098;6.168;2023-01-25T00:33:51;1.30;99.90
55721;DHT22;41626;53.098;6.168;2023-01-25T00:36:39;1.10;99.90
55721;DHT22;41626;53.098;6.168;2023-01-25T00:39:12;1.10;99.90
55721;DHT22;41626;53.098;6.168;2023-01-25T00:41:38;1.20;99.90
55721;DHT22;41626;53.098;6.168;2023-01-25T00:44:04;1.20;99.90
55721;DHT22;41626;53.098;6.168;2023-01-25T00:46:30;0.80;99.90
55721;DHT22;41626;53.098;6.168;2023-01-25T00:48:56;1.10;99.90
55721;DHT22;41626;53.098;6.168;2023-01-25T00:51:23;1.00;99.90
55721;DHT22;41626;53.098;6.168;2023-01-25T00:53:49;0.70;99.90
55721;DHT22;41626;53.098;6.168;2023-01-25T00:56:15;0.60;99.90
55721;DHT22;41626;53.098;6.168;2023-01-25T00:58:41;0.60;99.90
55721;DHT22;41626;53.098;6.168;2023-01-25T01:01:07;0.70;99.90
55721;DHT22;41626;53.098;6.168;2023-01-25T01:03:33;0.70;99.90
55721;DHT22;41626;53.098;6.168;2023-01-25T01:06:05;0.70;99.90
55721;DHT22;41626;53.098;6.168;2023-01-25T01:08:33;0.60;99.90
55721;DHT22;41626;53.098;6.168;2023-01-25T01:11:00;1.00;99.90
55721;DHT22;41626;53.098;6.168;2023-01-25T01:13:27;1.30;99.90
55721;DHT22;41626;53.098;6.168;2023-01-25T01:15:53;1.00;99.90
55721;DHT22;41626;53.098;6.168;2023-01-25T01:18:22;1.30;99.90
55721;DHT22;41626;53.098;6.168;2023-01-25T01:20:49;1.20;99.90
55721;DHT22;41626;53.098;6.168;2023-01-25T01:23:15;1.00;99.90
55721;DHT22;41626;53.098;6.168;2023-01-25T01:25:40;0.90;99.90
55721;DHT22;41626;53.098;6.168;2023-01-25T01:28:06;0.50;99.90
55721;DHT22;41626;53.098;6.168;2023-01-25T01:30:32;0.60;99.90
55721;DHT22;41626;53.098;6.168;2023-01-25T01:32:57;1.20;99.90
55721;DHT22;41626;53.098;6.168;2023-01-25T01:35:23;0.60;99.90
55721;DHT22;41626;53.098;6.168;2023-01-25T01:37:49;0.70;99.90
55721;DHT22;41626;53.098;6.168;2023-01-25T01:40:15;0.60;99.90
55721;DHT22;41626;53.098;6.168;2023-01-25T01:43:00;0.80;99.90
55721;DHT22;41626;53.098;6.168;2023-01-25T01:48:21;0.60;99.90
55721;DHT22;41626;53.098;6.168;2023-01-25T01:50:53;0.60;99.90
55721;DHT22;41626;53.098;6.168;2023-01-25T01:53:21;0.90;99.90
55721;DHT22;41626;53.098;6.168;2023-01-25T01:55:49;0.80;99.90
55721;DHT22;41626;53.098;6.168;2023-01-25T01:58:15;0.80;99.90
55721;DHT22;41626;53.098;6.168;2023-01-25T02:00:41;1.00;99.90
55721;DHT22;41626;53.098;6.168;2023-01-25T02:03:08;0.80;99.90
55721;DHT22;41626;53.098;6.168;2023-01-25T02:05:59;0.60;99.90
55721;DHT22;41626;53.098;6.168;2023-01-25T02:08:30;0.70;99.90
55721;DHT22;41626;53.098;6.168;2023-01-25T02:10:57;0.80;99.90
55721;DHT22;41626;53.098;6.168;2023-01-25T02:13:24;0.80;99.90
55721;DHT22;41626;53.098;6.168;2023-01-25T02:15:51;0.60;99.90
55721;DHT22;41626;53.098;6.168;2023-01-25T02:18:18;0.70;99.90
55721;DHT22;41626;53.098;6.168;2023-01-25T02:20:46;0.60;99.90
55721;DHT22;41626;53.098;6.168;2023-01-25T02:25:44;0.90;99.90
55721;DHT22;41626;53.098;6.168;2023-01-25T02:28:14;0.60;99.90
55721;DHT22;41626;53.098;6.168;2023-01-25T02:30:43;0.90;99.90
55721;DHT22;41626;53.098;6.168;2023-01-25T02:33:09;0.60;99.90
55721;DHT22;41626;53.098;6.168;2023-01-25T02:35:39;1.00;99.90
55721;DHT22;41626;53.098;6.168;2023-01-25T02:38:06;1.00;99.90
55721;DHT22;41626;53.098;6.168;2023-01-25T02:40:40;0.80;99.90
55721;DHT22;41626;53.098;6.168;2023-01-25T02:43:07;0.90;99.90
55721;DHT22;41626;53.098;6.168;2023-01-25T02:45:35;2.10;99.90
55721;DHT22;41626;53.098;6.168;2023-01-25T02:48:01;0.60;99.90
55721;DHT22;41626;53.098;6.168;2023-01-25T02:50:27;0.90;99.90
55721;DHT22;41626;53.098;6.168;2023-01-25T02:52:52;0.80;99.90
55721;DHT22;41626;53.098;6.168;2023-01-25T02:55:18;0.70;99.90
55721;DHT22;41626;53.098;6.168;2023-01-25T02:57:44;0.70;99.90
55721;DHT22;41626;53.098;6.168;2023-01-25T03:00:10;1.00;99.90
55721;DHT22;41626;53.098;6.168;2023-01-25T03:02:36;0.90;99.90
55721;DHT22;41626;53.098;6.168;2023-01-25T03:05:01;0.60;99.90
55721;DHT22;41626;53.098;6.168;2023-01-25T03:07:27;0.80;99.90
55721;DHT22;41626;53.098;6.168;2023-01-25T03:09:53;0.90;99.90
55721;DHT22;41626;53.098;6.168;2023-01-25T03:12:18;0.50;99.90
55721;DHT22;41626;53.098;6.168;2023-01-25T03:14:44;0.70;99.90
55721;DHT22;41626;53.098;6.168;2023-01-25T03:17:10;0.60;99.90
55721;DHT22;41626;53.098;6.168;2023-01-25T03:19:36;1.40;99.90
55721;DHT22;41626;53.098;6.168;2023-01-25T03:22:01;0.50;99.90
55721;DHT22;41626;53.098;6.168;2023-01-25T03:24:27;0.60;99.90
55721;DHT22;41626;53.098;6.168;2023-01-25T03:26:53;0.80;99.90
55721;DHT22;41626;53.098;6.168;2023-01-25T03:29:41;0.90;99.90
55721;DHT22;41626;53.098;6.168;2023-01-25T03:32:07;0.60;99.90
55721;DHT22;41626;53.098;6.168;2023-01-25T03:34:33;0.60;99.90
55721;DHT22;41626;53.098;6.168;2023-01-25T03:36:59;0.30;99.90
55721;DHT22;41626;53.098;6.168;2023-01-25T03:39:24;0.40;99.90
55721;DHT22;41626;53.098;6.168;2023-01-25T03:41:50;0.40;99.90
55721;DHT22;41626;53.098;6.168;2023-01-25T03:44:16;0.40;99.90
55721;DHT22;41626;53.098;6.168;2023-01-25T03:46:41;0.70;99.90
55721;DHT22;41626;53.098;6.168;2023-01-25T03:49:07;0.60;99.90
55721;DHT22;41626;53.098;6.168;2023-01-25T03:51:34;0.80;99.90
55721;DHT22;41626;53.098;6.168;2023-01-25T03:54:00;0.70;99.90
55721;DHT22;41626;53.098;6.168;2023-01-25T03:56:25;0.40;99.90
55721;DHT22;41626;53.098;6.168;2023-01-25T03:58:51;0.70;99.90
55721;DHT22;41626;53.098;6.168;2023-01-25T04:01:17;0.30;99.90
55721;DHT22;41626;53.098;6.168;2023-01-25T04:03:43;0.40;99.90
55721;DHT22;41626;53.098;6.168;2023-01-25T04:06:08;0.60;99.90
55721;DHT22;41626;53.098;6.168;2023-01-25T04:08:35;2.00;99.90
55721;DHT22;41626;53.098;6.168;2023-01-25T04:11:04;0.50;99.90
55721;DHT22;41626;53.098;6.168;2023-01-25T04:13:30;0.50;99.90
55721;DHT22;41626;53.098;6.168;2023-01-25T04:15:59;0.30;99.90
55721;DHT22;41626;53.098;6.168;2023-01-25T04:18:25;0.60;99.90
55721;DHT22;41626;53.098;6.168;2023-01-25T04:20:55;0.40;99.90
55721;DHT22;41626;53.098;6.168;2023-01-25T04:23:22;0.60;99.90
55721;DHT22;41626;53.098;6.168;2023-01-25T04:25:56;0.20;99.90
55721;DHT22;41626;53.098;6.168;2023-01-25T04:28:22;0.10;99.90
55721;DHT22;41626;53.098;6.168;2023-01-25T04:30:48;0.40;99.90
55721;DHT22;41626;53.098;6.168;2023-01-25T04:33:14;0.40;99.90
55721;DHT22;41626;53.098;6.168;2023-01-25T04:35:40;0.20;99.90
55721;DHT22;41626;53.098;6.168;2023-01-25T04:38:06;0.30;99.90
55721;DHT22;41626;53.098;6.168;2023-01-25T04:40:31;0.10;99.90
55721;DHT22;41626;53.098;6.168;2023-01-25T04:42:57;0.30;99.90
55721;DHT22;41626;53.098;6.168;2023-01-25T04:45:24;0.40;99.90
55721;DHT22;41626;53.098;6.168;2023-01-25T04:48:00;0.10;99.90
55721;DHT22;41626;53.098;6.168;2023-01-25T04:50:26;0.00;99.90
55721;DHT22;41626;53.098;6.168;2023-01-25T04:52:52;0.10;99.90
55721;DHT22;41626;53.098;6.168;2023-01-25T04:55:19;0.20;99.90
55721;DHT22;41626;53.098;6.168;2023-01-25T04:57:47;0.40;99.90
55721;DHT22;41626;53.098;6.168;2023-01-25T05:00:13;0.30;99.90
55721;DHT22;41626;53.098;6.168;2023-01-25T05:02:39;0.50;99.90
55721;DHT22;41626;53.098;6.168;2023-01-25T05:05:05;0.10;99.90
55721;DHT22;41626;53.098;6.168;2023-01-25T05:07:30;0.20;99.90
55721;DHT22;41626;53.098;6.168;2023-01-25T05:09:56;0.70;99.90
55721;DHT22;41626;53.098;6.168;2023-01-25T05:12:22;0.30;99.90
55721;DHT22;41626;53.098;6.168;2023-01-25T05:14:47;0.10;99.90
55721;DHT22;41626;53.098;6.168;2023-01-25T05:17:13;0.20;99.90
55721;DHT22;41626;53.098;6.168;2023-01-25T05:19:39;0.10;99.90
55721;DHT22;41626;53.098;6.168;2023-01-25T05:22:05;0.10;99.90
55721;DHT22;41626;53.098;6.168;2023-01-25T05:24:33;0.20;99.90
55721;DHT22;41626;53.098;6.168;2023-01-25T05:27:00;0.30;99.90
55721;DHT22;41626;53.098;6.168;2023-01-25T05:29:29;0.30;99.90
55721;DHT22;41626;53.098;6.168;2023-01-25T05:31:57;0.20;99.90
55721;DHT22;41626;53.098;6.168;2023-01-25T05:34:22;-0.20;99.90
55721;DHT22;41626;53.098;6.168;2023-01-25T05:36:48;0.10;99.90
55721;DHT22;41626;53.098;6.168;2023-01-25T05:39:14;1.50;99.90
55721;DHT22;41626;53.098;6.168;2023-01-25T05:41:40;0.10;99.90
55721;DHT22;41626;53.098;6.168;2023-01-25T05:44:05;0.00;99.90
55721;DHT22;41626;53.098;6.168;2023-01-25T05:46:31;-0.30;99.90
55721;DHT22;41626;53.098;6.168;2023-01-25T05:48:57;-0.10;99.90
55721;DHT22;41626;53.098;6.168;2023-01-25T05:51:22;-0.20;99.90
55721;DHT22;41626;53.098;6.168;2023-01-25T05:53:48;0.10;99.90
55721;DHT22;41626;53.098;6.168;2023-01-25T05:56:14;0.00;99.90
55721;DHT22;41626;53.098;6.168;2023-01-25T05:58:39;0.10;99.90
55721;DHT22;41626;53.098;6.168;2023-01-25T06:01:06;0.00;99.90
55721;DHT22;41626;53.098;6.168;2023-01-25T06:03:33;-0.20;99.90
55721;DHT22;41626;53.098;6.168;2023-01-25T06:06:00;-0.30;99.90
55721;DHT22;41626;53.098;6.168;2023-01-25T06:08:30;0.10;99.90
55721;DHT22;41626;53.098;6.168;2023-01-25T06:10:56;0.10;99.90
55721;DHT22;41626;53.098;6.168;2023-01-25T06:13:22;0.90;99.90
55721;DHT22;41626;53.098;6.168;2023-01-25T06:15:55;0.20;99.90
55721;DHT22;41626;53.098;6.168;2023-01-25T06:18:22;0.00;99.90
55721;DHT22;41626;53.098;6.168;2023-01-25T06:20:49;0.10;99.90
55721;DHT22;41626;53.098;6.168;2023-01-25T06:23:15;0.00;99.90
55721;DHT22;41626;53.098;6.168;2023-01-25T06:25:41;-0.30;99.90
55721;DHT22;41626;53.098;6.168;2023-01-25T06:28:07;0.10;99.90
55721;DHT22;41626;53.098;6.168;2023-01-25T06:30:32;-0.10;99.90
55721;DHT22;41626;53.098;6.168;2023-01-25T06:32:59;0.10;99.90
55721;DHT22;41626;53.098;6.168;2023-01-25T06:35:25;0.10;99.90
55721;DHT22;41626;53.098;6.168;2023-01-25T06:37:55;-0.10;99.90
55721;DHT22;41626;53.098;6.168;2023-01-25T06:40:21;0.00;99.90
55721;DHT22;41626;53.098;6.168;2023-01-25T06:42:46;-0.20;99.90
55721;DHT22;41626;53.098;6.168;2023-01-25T06:45:12;0.00;99.90
55721;DHT22;41626;53.098;6.168;2023-01-25T06:47:38;-0.10;99.90
55721;DHT22;41626;53.098;6.168;2023-01-25T06:50:04;-0.50;99.90
55721;DHT22;41626;53.098;6.168;2023-01-25T06:52:30;-0.30;99.90
55721;DHT22;41626;53.098;6.168;2023-01-25T06:54:56;-0.20;99.90
55721;DHT22;41626;53.098;6.168;2023-01-25T06:57:22;-0.40;99.90
55721;DHT22;41626;53.098;6.168;2023-01-25T06:59:48;-0.10;99.90
55721;DHT22;41626;53.098;6.168;2023-01-25T07:02:14;-0.10;99.90
55721;DHT22;41626;53.098;6.168;2023-01-25T07:04:40;-0.40;99.90
55721;DHT22;41626;53.098;6.168;2023-01-25T07:07:07;-0.20;99.90
55721;DHT22;41626;53.098;6.168;2023-01-25T07:09:34;-0.10;99.90
55721;DHT22;41626;53.098;6.168;2023-01-25T07:12:00;-0.10;99.90
55721;DHT22;41626;53.098;6.168;2023-01-25T07:14:26;-0.30;99.90
55721;DHT22;41626;53.098;6.168;2023-01-25T07:16:52;-0.10;99.90
55721;DHT22;41626;53.098;6.168;2023-01-25T07:19:18;0.00;99.90
55721;DHT22;41626;53.098;6.168;2023-01-25T07:21:43;0.40;99.90
55721;DHT22;41626;53.098;6.168;2023-01-25T07:24:14;-0.40;99.90
55721;DHT22;41626;53.098;6.168;2023-01-25T07:26:40;0.00;99.90
55721;DHT22;41626;53.098;6.168;2023-01-25T07:29:07;0.00;99.90
55721;DHT22;41626;53.098;6.168;2023-01-25T07:31:34;0.10;99.90
55721;DHT22;41626;53.098;6.168;2023-01-25T07:34:00;0.10;99.90
55721;DHT22;41626;53.098;6.168;2023-01-25T07:36:25;-0.30;99.90
55721;DHT22;41626;53.098;6.168;2023-01-25T07:38:55;-0.30;99.90
55721;DHT22;41626;53.098;6.168;2023-01-25T07:41:23;0.10;99.90
55721;DHT22;41626;53.098;6.168;2023-01-25T07:43:49;0.00;99.90
55721;DHT22;41626;53.098;6.168;2023-01-25T07:46:15;0.10;99.90
55721;DHT22;41626;53.098;6.168;2023-01-25T07:48:51;-0.30;99.90
55721;DHT22;41626;53.098;6.168;2023-01-25T07:51:21;-0.40;99.90
55721;DHT22;41626;53.098;6.168;2023-01-25T07:53:52;-0.40;99.90
55721;DHT22;41626;53.098;6.168;2023-01-25T07:56:19;0.00;99.90
55721;DHT22;41626;53.098;6.168;2023-01-25T07:58:46;-0.30;99.90
55721;DHT22;41626;53.098;6.168;2023-01-25T08:01:19;-0.20;99.90
55721;DHT22;41626;53.098;6.168;2023-01-25T08:03:46;0.10;99.90
55721;DHT22;41626;53.098;6.168;2023-01-25T08:06:12;-0.10;99.90
55721;DHT22;41626;53.098;6.168;2023-01-25T08:08:41;0.00;99.90
55721;DHT22;41626;53.098;6.168;2023-01-25T08:11:29;-0.40;99.90
55721;DHT22;41626;53.098;6.168;2023-01-25T08:13:55;-0.20;99.90
55721;DHT22;41626;53.098;6.168;2023-01-25T08:16:23;-0.20;99.90
55721;DHT22;41626;53.098;6.168;2023-01-25T08:18:51;0.10;99.90
55721;DHT22;41626;53.098;6.168;2023-01-25T08:21:17;0.20;99.90
55721;DHT22;41626;53.098;6.168;2023-01-25T08:23:43;0.00;99.90
55721;DHT22;41626;53.098;6.168;2023-01-25T08:26:11;-0.10;99.90
55721;DHT22;41626;53.098;6.168;2023-01-25T08:28:37;-0.20;99.90
55721;DHT22;41626;53.098;6.168;2023-01-25T08:31:14;0.30;99.90
55721;DHT22;41626;53.098;6.168;2023-01-25T08:33:41;0.40;99.90
55721;DHT22;41626;53.098;6.168;2023-01-25T08:36:09;0.00;99.90
55721;DHT22;41626;53.098;6.168;2023-01-25T08:38:36;-0.10;99.90
55721;DHT22;41626;53.098;6.168;2023-01-25T08:41:06;0.30;99.90
55721;DHT22;41626;53.098;6.168;2023-01-25T08:43:32;0.20;99.90
55721;DHT22;41626;53.098;6.168;2023-01-25T08:45:58;0.10;99.90
55721;DHT22;41626;53.098;6.168;2023-01-25T08:48:24;0.40;99.90
55721;DHT22;41626;53.098;6.168;2023-01-25T08:50:50;0.20;99.90
55721;DHT22;41626;53.098;6.168;2023-01-25T08:53:15;0.00;99.90
55721;DHT22;41626;53.098;6.168;2023-01-25T08:55:41;0.40;99.90
55721;DHT22;41626;53.098;6.168;2023-01-25T08:58:14;0.00;99.90
55721;DHT22;41626;53.098;6.168;2023-01-25T09:00:42;0.10;99.90
55721;DHT22;41626;53.098;6.168;2023-01-25T09:03:08;0.50;99.90
55721;DHT22;41626;53.098;6.168;2023-01-25T09:05:36;0.10;99.90
55721;DHT22;41626;53.098;6.168;2023-01-25T09:08:03;0.10;99.90
55721;DHT22;41626;53.098;6.168;2023-01-25T09:10:29;0.10;99.90
55721;DHT22;41626;53.098;6.168;2023-01-25T09:12:55;0.00;99.90
55721;DHT22;41626;53.098;6.168;2023-01-25T09:15:20;0.20;99.90
55721;DHT22;41626;53.098;6.168;2023-01-25T09:17:50;0.40;99.90
55721;DHT22;41626;53.098;6.168;2023-01-25T09:20:16;0.50;99.90
55721;DHT22;41626;53.098;6.168;2023-01-25T09:22:41;0.20;99.90
55721;DHT22;41626;53.098;6.168;2023-01-25T09:25:07;0.00;99.90
55721;DHT22;41626;53.098;6.168;2023-01-25T09:27:33;0.30;99.90
55721;DHT22;41626;53.098;6.168;2023-01-25T09:29:59;0.30;99.90
55721;DHT22;41626;53.098;6.168;2023-01-25T09:32:25;0.30;99.90
55721;DHT22;41626;53.098;6.168;2023-01-25T09:34:50;0.20;99.90
55721;DHT22;41626;53.098;6.168;2023-01-25T09:37:16;0.20;99.90
55721;DHT22;41626;53.098;6.168;2023-01-25T09:39:42;0.80;99.90
55721;DHT22;41626;53.098;6.168;2023-01-25T09:44:53;0.60;99.90
55721;DHT22;41626;53.098;6.168;2023-01-25T09:47:54;0.10;99.90
55721;DHT22;41626;53.098;6.168;2023-01-25T09:56:02;0.10;99.90
55721;DHT22;41626;53.098;6.168;2023-01-25T09:58:32;0.40;99.90
55721;DHT22;41626;53.098;6.168;2023-01-25T10:03:42;0.50;99.90
55721;DHT22;41626;53.098;6.168;2023-01-25T10:06:12;0.10;99.90
55721;DHT22;41626;53.098;6.168;2023-01-25T10:08:52;0.50;99.90
55721;DHT22;41626;53.098;6.168;2023-01-25T10:11:27;0.60;99.90
55721;DHT22;41626;53.098;6.168;2023-01-25T10:13:55;0.50;99.90
55721;DHT22;41626;53.098;6.168;2023-01-25T10:19:37;0.80;99.90
55721;DHT22;41626;53.098;6.168;2023-01-25T10:22:14;1.00;99.90
55721;DHT22;41626;53.098;6.168;2023-01-25T10:25:32;0.90;99.90
55721;DHT22;41626;53.098;6.168;2023-01-25T10:30:34;0.70;99.90
55721;DHT22;41626;53.098;6.168;2023-01-25T10:33:14;0.70;99.90
55721;DHT22;41626;53.098;6.168;2023-01-25T10:35:44;0.90;99.90
55721;DHT22;41626;53.098;6.168;2023-01-25T10:38:40;1.00;99.90
55721;DHT22;41626;53.098;6.168;2023-01-25T10:41:20;1.20;99.90
55721;DHT22;41626;53.098;6.168;2023-01-25T10:43:51;0.70;99.90
55721;DHT22;41626;53.098;6.168;2023-01-25T10:46:39;1.20;99.90
55721;DHT22;41626;53.098;6.168;2023-01-25T10:49:25;1.20;99.90
55721;DHT22;41626;53.098;6.168;2023-01-25T10:51:53;1.10;99.90
55721;DHT22;41626;53.098;6.168;2023-01-25T10:54:21;1.00;99.90
55721;DHT22;41626;53.098;6.168;2023-01-25T10:56:48;1.00;99.90
55721;DHT22;41626;53.098;6.168;2023-01-25T10:59:21;1.10;99.90
55721;DHT22;41626;53.098;6.168;2023-01-25T11:01:47;0.90;99.90
55721;DHT22;41626;53.098;6.168;2023-01-25T11:04:29;1.20;99.90
55721;DHT22;41626;53.098;6.168;2023-01-25T11:06:54;1.50;99.90
55721;DHT22;41626;53.098;6.168;2023-01-25T11:12:00;1.00;99.90
55721;DHT22;41626;53.098;6.168;2023-01-25T11:14:28;1.10;99.90
55721;DHT22;41626;53.098;6.168;2023-01-25T11:16:57;1.80;99.90
55721;DHT22;41626;53.098;6.168;2023-01-25T11:19:35;1.10;99.90
55721;DHT22;41626;53.098;6.168;2023-01-25T11:22:24;1.10;99.90
55721;DHT22;41626;53.098;6.168;2023-01-25T11:24:50;1.30;99.90
55721;DHT22;41626;53.098;6.168;2023-01-25T11:27:26;1.50;99.90
55721;DHT22;41626;53.098;6.168;2023-01-25T11:32:30;2.30;99.90
55721;DHT22;41626;53.098;6.168;2023-01-25T11:34:56;1.00;99.90
55721;DHT22;41626;53.098;6.168;2023-01-25T11:40:21;1.10;99.90
55721;DHT22;41626;53.098;6.168;2023-01-25T11:51:03;1.10;99.90
55721;DHT22;41626;53.098;6.168;2023-01-25T11:56:36;1.50;99.90
55721;DHT22;41626;53.098;6.168;2023-01-25T11:59:23;1.60;99.90
55721;DHT22;41626;53.098;6.168;2023-01-25T12:04:45;1.10;99.90
55721;DHT22;41626;53.098;6.168;2023-01-25T12:07:37;1.40;99.90
55721;DHT22;41626;53.098;6.168;2023-01-25T12:10:13;1.40;99.90
55721;DHT22;41626;53.098;6.168;2023-01-25T12:17:59;1.50;99.90
55721;DHT22;41626;53.098;6.168;2023-01-25T12:20:36;1.50;99.90
55721;DHT22;41626;53.098;6.168;2023-01-25T12:28:50;2.40;99.90
55721;DHT22;41626;53.098;6.168;2023-01-25T12:31:47;1.50;99.90
55721;DHT22;41626;53.098;6.168;2023-01-25T12:34:30;1.50;99.90
55721;DHT22;41626;53.098;6.168;2023-01-25T12:37:01;1.60;99.90
55721;DHT22;41626;53.098;6.168;2023-01-25T12:39:33;3.40;99.90
55721;DHT22;41626;53.098;6.168;2023-01-25T12:42:20;1.50;99.90
55721;DHT22;41626;53.098;6.168;2023-01-25T12:44:55;1.50;99.90
55721;DHT22;41626;53.098;6.168;2023-01-25T12:53:17;1.70;99.90
55721;DHT22;41626;53.098;6.168;2023-01-25T12:55:45;1.60;99.90
55721;DHT22;41626;53.098;6.168;2023-01-25T12:58:19;1.60;99.90
55721;DHT22;41626;53.098;6.168;2023-01-25T13:01:01;1.50;99.90
55721;DHT22;41626;53.098;6.168;2023-01-25T13:04:02;1.50;99.90
55721;DHT22;41626;53.098;6.168;2023-01-25T13:06:44;1.50;99.90
55721;DHT22;41626;53.098;6.168;2023-01-25T13:09:26;1.70;99.90
55721;DHT22;41626;53.098;6.168;2023-01-25T13:11:54;3.80;99.90
55721;DHT22;41626;53.098;6.168;2023-01-25T13:14:30;2.30;99.90
55721;DHT22;41626;53.098;6.168;2023-01-25T13:17:31;1.60;99.90
55721;DHT22;41626;53.098;6.168;2023-01-25T13:19:58;2.40;99.90
55721;DHT22;41626;53.098;6.168;2023-01-25T13:27:41;1.60;99.90
55721;DHT22;41626;53.098;6.168;2023-01-25T13:33:02;1.70;99.90
55721;DHT22;41626;53.098;6.168;2023-01-25T13:35:33;1.70;99.90
55721;DHT22;41626;53.098;6.168;2023-01-25T13:38:19;1.60;99.90
55721;DHT22;41626;53.098;6.168;2023-01-25T13:41:04;1.70;99.90
55721;DHT22;41626;53.098;6.168;2023-01-25T13:43:35;1.60;99.90
55721;DHT22;41626;53.098;6.168;2023-01-25T13:46:03;1.50;99.90
55721;DHT22;41626;53.098;6.168;2023-01-25T13:48:31;1.60;99.90
55721;DHT22;41626;53.098;6.168;2023-01-25T13:51:02;1.40;99.90
55721;DHT22;41626;53.098;6.168;2023-01-25T13:53:28;1.40;99.90
55721;DHT22;41626;53.098;6.168;2023-01-25T13:55:58;1.50;99.90
55721;DHT22;41626;53.098;6.168;2023-01-25T13:58:35;1.50;99.90
55721;DHT22;41626;53.098;6.168;2023-01-25T14:01:18;1.50;99.90
55721;DHT22;41626;53.098;6.168;2023-01-25T14:04:02;1.60;99.90
55721;DHT22;41626;53.098;6.168;2023-01-25T14:06:38;1.60;99.90
55721;DHT22;41626;53.098;6.168;2023-01-25T14:09:11;1.50;99.90
55721;DHT22;41626;53.098;6.168;2023-01-25T14:11:45;1.40;99.90
55721;DHT22;41626;53.098;6.168;2023-01-25T14:16:45;1.60;99.90
55721;DHT22;41626;53.098;6.168;2023-01-25T14:19:34;1.60;99.90
55721;DHT22;41626;53.098;6.168;2023-01-25T14:22:25;1.60;99.90
55721;DHT22;41626;53.098;6.168;2023-01-25T14:25:11;1.50;99.90
55721;DHT22;41626;53.098;6.168;2023-01-25T14:32:47;1.50;99.90
55721;DHT22;41626;53.098;6.168;2023-01-25T14:37:55;1.40;99.90
55721;DHT22;41626;53.098;6.168;2023-01-25T14:40:22;1.60;99.90
55721;DHT22;41626;53.098;6.168;2023-01-25T14:42:51;1.50;99.90
55721;DHT22;41626;53.098;6.168;2023-01-25T14:45:17;1.60;99.90
55721;DHT22;41626;53.098;6.168;2023-01-25T14:47:44;1.60;99.90
55721;DHT22;41626;53.098;6.168;2023-01-25T14:50:35;2.20;99.90
55721;DHT22;41626;53.098;6.168;2023-01-25T14:53:15;1.60;99.90
55721;DHT22;41626;53.098;6.168;2023-01-25T14:55:44;1.50;99.90
55721;DHT22;41626;53.098;6.168;2023-01-25T14:58:21;1.60;99.90
55721;DHT22;41626;53.098;6.168;2023-01-25T15:01:00;1.60;99.90
55721;DHT22;41626;53.098;6.168;2023-01-25T15:03:28;1.60;99.90
55721;DHT22;41626;53.098;6.168;2023-01-25T15:05:55;1.50;99.90
55721;DHT22;41626;53.098;6.168;2023-01-25T15:08:34;1.50;99.90
55721;DHT22;41626;53.098;6.168;2023-01-25T15:11:01;1.70;99.90
55721;DHT22;41626;53.098;6.168;2023-01-25T15:13:46;1.60;99.90
55721;DHT22;41626;53.098;6.168;2023-01-25T15:16:12;1.40;99.90
55721;DHT22;41626;53.098;6.168;2023-01-25T15:18:53;1.50;99.90
55721;DHT22;41626;53.098;6.168;2023-01-25T15:21:29;1.40;99.90
55721;DHT22;41626;53.098;6.168;2023-01-25T15:23:57;1.40;99.90
55721;DHT22;41626;53.098;6.168;2023-01-25T15:26:30;1.40;99.90
55721;DHT22;41626;53.098;6.168;2023-01-25T15:29:11;2.20;99.90
55721;DHT22;41626;53.098;6.168;2023-01-25T15:31:38;1.20;99.90
55721;DHT22;41626;53.098;6.168;2023-01-25T15:34:04;1.30;99.90
55721;DHT22;41626;53.098;6.168;2023-01-25T15:36:31;1.20;99.90
55721;DHT22;41626;53.098;6.168;2023-01-25T15:38:58;1.20;99.90
55721;DHT22;41626;53.098;6.168;2023-01-25T15:41:23;1.20;99.90
55721;DHT22;41626;53.098;6.168;2023-01-25T15:43:49;1.10;99.90
55721;DHT22;41626;53.098;6.168;2023-01-25T15:46:20;1.30;99.90
55721;DHT22;41626;53.098;6.168;2023-01-25T15:48:48;1.20;99.90
55721;DHT22;41626;53.098;6.168;2023-01-25T15:51:15;1.20;99.90
55721;DHT22;41626;53.098;6.168;2023-01-25T15:53:41;1.10;99.90
55721;DHT22;41626;53.098;6.168;2023-01-25T15:56:17;1.10;99.90
55721;DHT22;41626;53.098;6.168;2023-01-25T15:58:46;1.40;99.90
55721;DHT22;41626;53.098;6.168;2023-01-25T16:01:14;1.00;99.90
55721;DHT22;41626;53.098;6.168;2023-01-25T16:03:40;1.50;99.90
55721;DHT22;41626;53.098;6.168;2023-01-25T16:08:51;0.80;99.90
55721;DHT22;41626;53.098;6.168;2023-01-25T16:11:17;1.00;99.90
55721;DHT22;41626;53.098;6.168;2023-01-25T16:13:43;0.90;99.90
55721;DHT22;41626;53.098;6.168;2023-01-25T16:16:22;0.90;99.90
55721;DHT22;41626;53.098;6.168;2023-01-25T16:18:48;0.80;99.90
55721;DHT22;41626;53.098;6.168;2023-01-25T16:21:15;0.80;99.90
55721;DHT22;41626;53.098;6.168;2023-01-25T16:23:41;0.80;99.90
55721;DHT22;41626;53.098;6.168;2023-01-25T16:26:19;0.80;99.90
55721;DHT22;41626;53.098;6.168;2023-01-25T16:28:45;0.90;99.90
55721;DHT22;41626;53.098;6.168;2023-01-25T16:31:12;1.80;99.90
55721;DHT22;41626;53.098;6.168;2023-01-25T16:33:39;0.80;99.90
55721;DHT22;41626;53.098;6.168;2023-01-25T16:36:15;0.80;99.90
55721;DHT22;41626;53.098;6.168;2023-01-25T16:38:42;0.80;99.90
55721;DHT22;41626;53.098;6.168;2023-01-25T16:41:07;0.80;99.90
55721;DHT22;41626;53.098;6.168;2023-01-25T16:43:38;0.70;99.90
55721;DHT22;41626;53.098;6.168;2023-01-25T16:46:04;0.70;99.90
55721;DHT22;41626;53.098;6.168;2023-01-25T16:48:30;0.60;99.90
55721;DHT22;41626;53.098;6.168;2023-01-25T16:50:55;0.60;99.90
55721;DHT22;41626;53.098;6.168;2023-01-25T16:53:23;0.60;99.90
55721;DHT22;41626;53.098;6.168;2023-01-25T16:55:48;0.70;99.90
55721;DHT22;41626;53.098;6.168;2023-01-25T16:58:14;0.50;99.90
55721;DHT22;41626;53.098;6.168;2023-01-25T17:00:40;0.60;99.90
55721;DHT22;41626;53.098;6.168;2023-01-25T17:03:06;1.00;99.90
55721;DHT22;41626;53.098;6.168;2023-01-25T17:05:31;0.70;99.90
55721;DHT22;41626;53.098;6.168;2023-01-25T17:07:58;0.60;99.90
55721;DHT22;41626;53.098;6.168;2023-01-25T17:10:24;0.60;99.90
55721;DHT22;41626;53.098;6.168;2023-01-25T17:12:50;0.60;99.90
55721;DHT22;41626;53.098;6.168;2023-01-25T17:15:16;0.60;99.90
55721;DHT22;41626;53.098;6.168;2023-01-25T17:17:45;0.50;99.90
55721;DHT22;41626;53.098;6.168;2023-01-25T17:20:11;0.70;99.90
55721;DHT22;41626;53.098;6.168;2023-01-25T17:22:37;0.60;99.90